createdAt,value
2018-03-23T00:01:26.737Z,219.6
2018-03-23T00:11:31.240Z,191.1
2018-03-23T00:21:28.683Z,192.4
2018-03-23T00:31:27.225Z,189.1
2018-03-23T00:41:29.192Z,208.7
2018-03-23T00:51:27.774Z,205.2
2018-03-23T01:01:32.194Z,199.2
2018-03-23T01:11:27.089Z,206.3
2018-03-23T01:21:28.197Z,200.7
2018-03-23T01:31:29.956Z,198.7
2018-03-23T01:41:27.323Z,183.1
2018-03-23T01:51:27.392Z,193.7
2018-03-23T02:01:26.986Z,179.4
2018-03-23T02:11:26.951Z,195.3
2018-03-23T02:21:29.202Z,188.6
2018-03-23T02:31:26.875Z,173.5
2018-03-23T02:41:26.607Z,199.8
2018-03-23T02:51:28.793Z,197.0
2018-03-23T03:01:26.688Z,189.4
2018-03-23T03:11:26.534Z,200.1
2018-03-23T03:21:27.572Z,172.2
2018-03-23T03:31:28.817Z,178.7
2018-03-23T03:41:27.051Z,189.6
2018-03-23T03:51:28.188Z,183.6
2018-03-23T04:01:27.273Z,188.3
2018-03-23T04:11:27.322Z,192.9
2018-03-23T04:21:26.185Z,153.8
2018-03-23T04:31:27.253Z,167.1
2018-03-23T04:41:26.724Z,180.4
2018-03-23T04:51:27.465Z,191.5
2018-03-23T05:01:27.272Z,189.3
2018-03-23T05:11:26.742Z,185.7
2018-03-23T05:21:28.116Z,199.1
2018-03-23T05:31:26.641Z,182.4
2018-03-23T05:41:32.657Z,175.8
2018-03-23T05:51:32.686Z,154.7
2018-03-23T06:01:32.373Z,131.1
2018-03-23T06:11:32.906Z,128.4
2018-03-23T06:21:33.911Z,136.2
2018-03-23T14:11:32.848Z,46.5
2018-03-23T15:41:34.824Z,46.5
2018-03-23T15:51:26.848Z,43.1
2018-03-23T16:01:32.625Z,42.6
2018-03-23T16:11:38.175Z,46.7
2018-03-23T16:21:37.309Z,41.5
2018-03-23T16:31:29.559Z,50.7
2018-03-23T16:41:38.367Z,46.4
2018-03-23T16:52:06.188Z,63.4
2018-03-23T17:11:33.942Z,59.4
2018-03-23T17:21:32.992Z,69.2
2018-03-23T17:31:37.053Z,65.8
2018-03-23T17:41:32.544Z,76.0
2018-03-23T17:51:27.142Z,81.4
2018-03-23T18:01:29.155Z,73.8
2018-03-23T18:11:30.161Z,81.1
2018-03-23T18:21:27.559Z,81.3
2018-03-23T18:31:32.924Z,91.3
2018-03-23T18:41:31.969Z,103.1
2018-03-23T18:51:33.433Z,103.8
2018-03-23T19:01:32.366Z,100.3
2018-03-23T19:11:34.593Z,87.9
2018-03-23T19:21:29.317Z,95.0
2018-03-23T19:31:33.644Z,98.0
2018-03-23T19:41:32.387Z,117.7
2018-03-23T19:51:27.475Z,115.3
2018-03-23T20:02:47.718Z,118.5
2018-03-23T20:11:27.963Z,131.3
2018-03-23T20:21:27.316Z,122.1
2018-03-23T20:31:32.613Z,124.1
2018-03-23T20:41:33.398Z,129.6
2018-03-23T20:51:32.362Z,124.6
2018-03-23T21:01:33.929Z,124.8
2018-03-23T21:11:40.022Z,131.8
2018-03-23T21:21:32.436Z,140.0
2018-03-23T21:31:35.932Z,130.1
2018-03-23T21:41:31.988Z,127.4
2018-03-23T21:51:34.141Z,129.0
2018-03-23T22:01:32.151Z,137.3
2018-03-23T22:11:32.231Z,138.9
2018-03-23T22:21:32.556Z,119.8
2018-03-23T22:31:28.929Z,129.7
2018-03-23T22:41:26.972Z,122.2
2018-03-23T22:51:26.432Z,129.6
2018-03-23T23:01:28.658Z,128.1
2018-03-23T23:11:29.328Z,137.3
2018-03-23T23:21:27.157Z,139.0
2018-03-23T23:31:27.342Z,144.8
2018-03-23T23:41:27.907Z,142.4
2018-03-23T23:51:28.164Z,140.4
